sensor_id;sensor_type;location;lat;lon;timestamp;P1;durP1;ratioP1;P2;durP2;ratioP2
12871;SDS011;6504;53.766;9.626;2022-10-31T00:01:33;9.40;;;8.70;;
12871;SDS011;6504;53.766;9.626;2022-10-31T00:04:02;8.90;;;8.20;;
12871;SDS011;6504;53.766;9.626;2022-10-31T00:06:31;8.37;;;7.77;;
12871;SDS011;6504;53.766;9.626;2022-10-31T00:09:00;8.90;;;8.17;;
12871;SDS011;6504;53.766;9.626;2022-10-31T00:11:31;8.17;;;7.37;;
12871;SDS011;6504;53.766;9.626;2022-10-31T00:13:59;8.10;;;7.50;;
12871;SDS011;6504;53.766;9.626;2022-10-31T00:16:28;8.70;;;7.90;;
12871;SDS011;6504;53.766;9.626;2022-10-31T00:18:57;8.97;;;8.17;;
12871;SDS011;6504;53.766;9.626;2022-10-31T00:21:26;8.83;;;8.03;;
12871;SDS011;6504;53.766;9.626;2022-10-31T00:23:56;10.30;;;9.20;;
12871;SDS011;6504;53.766;9.626;2022-10-31T00:26:24;9.53;;;8.63;;
12871;SDS011;6504;53.766;9.626;2022-10-31T00:28:55;9.63;;;8.70;;
12871;SDS011;6504;53.766;9.626;2022-10-31T00:31:24;8.70;;;7.73;;
12871;SDS011;6504;53.766;9.626;2022-10-31T00:33:52;9.93;;;8.93;;
12871;SDS011;6504;53.766;9.626;2022-10-31T00:36:20;9.23;;;8.33;;
12871;SDS011;6504;53.766;9.626;2022-10-31T00:38:48;8.63;;;7.73;;
12871;SDS011;6504;53.766;9.626;2022-10-31T00:41:17;10.27;;;9.33;;
12871;SDS011;6504;53.766;9.626;2022-10-31T00:43:45;8.80;;;7.93;;
12871;SDS011;6504;53.766;9.626;2022-10-31T00:46:15;9.10;;;8.30;;
12871;SDS011;6504;53.766;9.626;2022-10-31T00:48:43;9.73;;;8.83;;
12871;SDS011;6504;53.766;9.626;2022-10-31T00:51:11;9.60;;;8.70;;
12871;SDS011;6504;53.766;9.626;2022-10-31T00:53:39;10.57;;;9.57;;
12871;SDS011;6504;53.766;9.626;2022-10-31T00:56:07;10.97;;;9.97;;
12871;SDS011;6504;53.766;9.626;2022-10-31T00:58:35;10.60;;;9.60;;
12871;SDS011;6504;53.766;9.626;2022-10-31T01:01:03;10.20;;;9.23;;
12871;SDS011;6504;53.766;9.626;2022-10-31T01:03:33;10.17;;;9.27;;
12871;SDS011;6504;53.766;9.626;2022-10-31T01:06:02;11.43;;;9.37;;
12871;SDS011;6504;53.766;9.626;2022-10-31T01:08:32;11.20;;;10.10;;
12871;SDS011;6504;53.766;9.626;2022-10-31T01:11:01;11.77;;;9.90;;
12871;SDS011;6504;53.766;9.626;2022-10-31T01:13:32;11.33;;;10.13;;
12871;SDS011;6504;53.766;9.626;2022-10-31T01:16:00;11.63;;;10.53;;
12871;SDS011;6504;53.766;9.626;2022-10-31T01:18:30;13.33;;;11.20;;
12871;SDS011;6504;53.766;9.626;2022-10-31T01:21:01;12.70;;;11.50;;
12871;SDS011;6504;53.766;9.626;2022-10-31T01:23:30;12.87;;;11.57;;
12871;SDS011;6504;53.766;9.626;2022-10-31T01:25:59;13.40;;;12.00;;
12871;SDS011;6504;53.766;9.626;2022-10-31T01:28:33;12.80;;;11.60;;
12871;SDS011;6504;53.766;9.626;2022-10-31T01:31:02;11.33;;;10.17;;
12871;SDS011;6504;53.766;9.626;2022-10-31T01:33:32;12.20;;;10.93;;
12871;SDS011;6504;53.766;9.626;2022-10-31T01:36:10;13.70;;;12.33;;
12871;SDS011;6504;53.766;9.626;2022-10-31T01:38:39;13.27;;;12.00;;
12871;SDS011;6504;53.766;9.626;2022-10-31T01:41:07;17.80;;;13.87;;
12871;SDS011;6504;53.766;9.626;2022-10-31T01:43:44;15.43;;;13.83;;
12871;SDS011;6504;53.766;9.626;2022-10-31T01:46:15;17.30;;;14.60;;
12871;SDS011;6504;53.766;9.626;2022-10-31T01:48:47;14.80;;;13.27;;
12871;SDS011;6504;53.766;9.626;2022-10-31T01:51:17;15.30;;;13.40;;
12871;SDS011;6504;53.766;9.626;2022-10-31T01:53:48;18.67;;;15.10;;
12871;SDS011;6504;53.766;9.626;2022-10-31T01:56:17;18.90;;;16.90;;
12871;SDS011;6504;53.766;9.626;2022-10-31T01:58:46;19.07;;;17.03;;
12871;SDS011;6504;53.766;9.626;2022-10-31T02:01:14;20.40;;;16.57;;
12871;SDS011;6504;53.766;9.626;2022-10-31T02:03:44;18.43;;;15.77;;
12871;SDS011;6504;53.766;9.626;2022-10-31T02:06:16;18.30;;;15.77;;
12871;SDS011;6504;53.766;9.626;2022-10-31T02:08:50;16.17;;;14.57;;
12871;SDS011;6504;53.766;9.626;2022-10-31T02:11:18;18.20;;;15.87;;
12871;SDS011;6504;53.766;9.626;2022-10-31T02:13:48;17.07;;;15.37;;
12871;SDS011;6504;53.766;9.626;2022-10-31T02:16:16;18.17;;;16.27;;
12871;SDS011;6504;53.766;9.626;2022-10-31T02:18:44;19.60;;;17.60;;
12871;SDS011;6504;53.766;9.626;2022-10-31T02:21:14;18.20;;;16.23;;
12871;SDS011;6504;53.766;9.626;2022-10-31T02:24:00;17.80;;;15.90;;
12871;SDS011;6504;53.766;9.626;2022-10-31T02:26:49;18.30;;;16.40;;
12871;SDS011;6504;53.766;9.626;2022-10-31T02:32:36;17.67;;;15.87;;
12871;SDS011;6504;53.766;9.626;2022-10-31T02:35:13;17.40;;;15.60;;
12871;SDS011;6504;53.766;9.626;2022-10-31T02:37:51;16.77;;;14.80;;
12871;SDS011;6504;53.766;9.626;2022-10-31T02:40:25;16.90;;;15.20;;
12871;SDS011;6504;53.766;9.626;2022-10-31T02:43:00;17.33;;;15.53;;
12871;SDS011;6504;53.766;9.626;2022-10-31T02:45:33;18.20;;;14.70;;
12871;SDS011;6504;53.766;9.626;2022-10-31T02:48:11;16.90;;;14.77;;
12871;SDS011;6504;53.766;9.626;2022-10-31T02:50:43;16.70;;;14.93;;
12871;SDS011;6504;53.766;9.626;2022-10-31T02:53:17;17.20;;;15.07;;
12871;SDS011;6504;53.766;9.626;2022-10-31T02:55:54;16.60;;;14.90;;
12871;SDS011;6504;53.766;9.626;2022-10-31T02:58:26;16.30;;;14.60;;
12871;SDS011;6504;53.766;9.626;2022-10-31T03:04:28;13.83;;;12.63;;
12871;SDS011;6504;53.766;9.626;2022-10-31T03:07:15;13.37;;;12.10;;
12871;SDS011;6504;53.766;9.626;2022-10-31T03:09:54;12.77;;;11.47;;
12871;SDS011;6504;53.766;9.626;2022-10-31T03:12:30;11.93;;;10.83;;
12871;SDS011;6504;53.766;9.626;2022-10-31T03:15:12;12.83;;;11.70;;
12871;SDS011;6504;53.766;9.626;2022-10-31T03:17:46;13.67;;;12.37;;
12871;SDS011;6504;53.766;9.626;2022-10-31T03:20:23;13.40;;;12.20;;
12871;SDS011;6504;53.766;9.626;2022-10-31T03:22:56;12.80;;;11.70;;
12871;SDS011;6504;53.766;9.626;2022-10-31T03:25:26;12.37;;;11.27;;
12871;SDS011;6504;53.766;9.626;2022-10-31T03:27:56;13.07;;;11.97;;
12871;SDS011;6504;53.766;9.626;2022-10-31T03:30:27;13.93;;;12.73;;
12871;SDS011;6504;53.766;9.626;2022-10-31T03:32:56;13.23;;;11.93;;
12871;SDS011;6504;53.766;9.626;2022-10-31T03:35:29;12.17;;;11.17;;
12871;SDS011;6504;53.766;9.626;2022-10-31T03:37:59;10.93;;;10.03;;
12871;SDS011;6504;53.766;9.626;2022-10-31T03:40:32;10.50;;;9.50;;
12871;SDS011;6504;53.766;9.626;2022-10-31T03:43:04;9.80;;;8.97;;
12871;SDS011;6504;53.766;9.626;2022-10-31T03:45:38;10.00;;;9.10;;
12871;SDS011;6504;53.766;9.626;2022-10-31T03:48:09;9.97;;;9.13;;
12871;SDS011;6504;53.766;9.626;2022-10-31T03:50:40;10.50;;;9.53;;
12871;SDS011;6504;53.766;9.626;2022-10-31T03:53:16;10.57;;;9.60;;
12871;SDS011;6504;53.766;9.626;2022-10-31T03:55:50;11.73;;;10.53;;
12871;SDS011;6504;53.766;9.626;2022-10-31T03:58:25;12.13;;;11.03;;
12871;SDS011;6504;53.766;9.626;2022-10-31T04:00:57;13.50;;;12.27;;
12871;SDS011;6504;53.766;9.626;2022-10-31T04:03:30;14.83;;;13.27;;
12871;SDS011;6504;53.766;9.626;2022-10-31T04:06:01;16.20;;;14.60;;
12871;SDS011;6504;53.766;9.626;2022-10-31T04:08:33;16.80;;;14.67;;
12871;SDS011;6504;53.766;9.626;2022-10-31T04:11:06;16.20;;;14.50;;
12871;SDS011;6504;53.766;9.626;2022-10-31T04:13:37;18.83;;;16.83;;
12871;SDS011;6504;53.766;9.626;2022-10-31T04:16:09;18.97;;;16.13;;
12871;SDS011;6504;53.766;9.626;2022-10-31T04:18:42;17.83;;;15.97;;
12871;SDS011;6504;53.766;9.626;2022-10-31T04:21:12;17.97;;;16.00;;
12871;SDS011;6504;53.766;9.626;2022-10-31T04:23:40;17.67;;;15.87;;
12871;SDS011;6504;53.766;9.626;2022-10-31T04:26:08;18.63;;;16.67;;
12871;SDS011;6504;53.766;9.626;2022-10-31T04:28:39;18.50;;;16.60;;
12871;SDS011;6504;53.766;9.626;2022-10-31T04:31:08;17.70;;;15.80;;
12871;SDS011;6504;53.766;9.626;2022-10-31T04:33:37;18.17;;;16.00;;
12871;SDS011;6504;53.766;9.626;2022-10-31T04:36:05;16.77;;;15.07;;
12871;SDS011;6504;53.766;9.626;2022-10-31T04:38:35;18.93;;;16.70;;
12871;SDS011;6504;53.766;9.626;2022-10-31T04:41:03;19.97;;;17.33;;
12871;SDS011;6504;53.766;9.626;2022-10-31T04:43:31;21.43;;;18.40;;
12871;SDS011;6504;53.766;9.626;2022-10-31T04:45:59;19.60;;;17.57;;
12871;SDS011;6504;53.766;9.626;2022-10-31T04:48:27;20.17;;;18.17;;
12871;SDS011;6504;53.766;9.626;2022-10-31T04:50:58;20.63;;;18.47;;
12871;SDS011;6504;53.766;9.626;2022-10-31T04:53:26;20.63;;;18.53;;
12871;SDS011;6504;53.766;9.626;2022-10-31T04:55:57;20.47;;;18.47;;
12871;SDS011;6504;53.766;9.626;2022-10-31T04:58:26;20.10;;;18.10;;
12871;SDS011;6504;53.766;9.626;2022-10-31T05:00:54;21.20;;;18.93;;
12871;SDS011;6504;53.766;9.626;2022-10-31T05:03:22;20.13;;;18.13;;
12871;SDS011;6504;53.766;9.626;2022-10-31T05:05:50;20.97;;;18.73;;
12871;SDS011;6504;53.766;9.626;2022-10-31T05:08:18;20.40;;;18.20;;
12871;SDS011;6504;53.766;9.626;2022-10-31T05:10:46;22.00;;;19.63;;
12871;SDS011;6504;53.766;9.626;2022-10-31T05:13:16;21.07;;;18.90;;
12871;SDS011;6504;53.766;9.626;2022-10-31T05:15:44;21.60;;;19.33;;
12871;SDS011;6504;53.766;9.626;2022-10-31T05:18:12;20.87;;;18.67;;
12871;SDS011;6504;53.766;9.626;2022-10-31T05:20:40;20.57;;;18.27;;
12871;SDS011;6504;53.766;9.626;2022-10-31T05:23:08;20.87;;;18.63;;
12871;SDS011;6504;53.766;9.626;2022-10-31T05:25:36;19.53;;;17.43;;
12871;SDS011;6504;53.766;9.626;2022-10-31T05:28:04;21.20;;;18.90;;
12871;SDS011;6504;53.766;9.626;2022-10-31T05:30:33;21.27;;;18.63;;
12871;SDS011;6504;53.766;9.626;2022-10-31T05:33:01;19.67;;;17.57;;
12871;SDS011;6504;53.766;9.626;2022-10-31T05:35:30;21.80;;;18.63;;
12871;SDS011;6504;53.766;9.626;2022-10-31T05:37:59;20.87;;;18.37;;
12871;SDS011;6504;53.766;9.626;2022-10-31T05:40:27;23.83;;;19.87;;
12871;SDS011;6504;53.766;9.626;2022-10-31T05:42:56;19.37;;;17.27;;
12871;SDS011;6504;53.766;9.626;2022-10-31T05:45:25;25.80;;;20.90;;
12871;SDS011;6504;53.766;9.626;2022-10-31T05:47:55;23.53;;;19.87;;
12871;SDS011;6504;53.766;9.626;2022-10-31T05:50:25;26.27;;;20.23;;
12871;SDS011;6504;53.766;9.626;2022-10-31T05:52:55;23.63;;;19.43;;
12871;SDS011;6504;53.766;9.626;2022-10-31T05:55:24;23.80;;;19.57;;
12871;SDS011;6504;53.766;9.626;2022-10-31T05:57:52;23.30;;;18.53;;
12871;SDS011;6504;53.766;9.626;2022-10-31T06:00:21;23.80;;;19.90;;
12871;SDS011;6504;53.766;9.626;2022-10-31T06:02:58;26.17;;;20.67;;
12871;SDS011;6504;53.766;9.626;2022-10-31T06:05:27;23.27;;;18.77;;
12871;SDS011;6504;53.766;9.626;2022-10-31T06:07:55;22.57;;;18.60;;
12871;SDS011;6504;53.766;9.626;2022-10-31T06:10:24;20.80;;;18.17;;
12871;SDS011;6504;53.766;9.626;2022-10-31T06:12:52;21.57;;;19.13;;
12871;SDS011;6504;53.766;9.626;2022-10-31T06:15:20;21.77;;;19.20;;
12871;SDS011;6504;53.766;9.626;2022-10-31T06:17:58;21.33;;;18.67;;
12871;SDS011;6504;53.766;9.626;2022-10-31T06:20:28;21.07;;;18.00;;
12871;SDS011;6504;53.766;9.626;2022-10-31T06:22:56;21.83;;;18.30;;
12871;SDS011;6504;53.766;9.626;2022-10-31T06:25:25;23.13;;;19.50;;
12871;SDS011;6504;53.766;9.626;2022-10-31T06:27:53;22.50;;;19.17;;
12871;SDS011;6504;53.766;9.626;2022-10-31T06:30:22;21.07;;;18.27;;
12871;SDS011;6504;53.766;9.626;2022-10-31T06:32:50;22.43;;;19.93;;
12871;SDS011;6504;53.766;9.626;2022-10-31T06:35:19;21.33;;;18.67;;
12871;SDS011;6504;53.766;9.626;2022-10-31T06:37:51;20.63;;;18.43;;
12871;SDS011;6504;53.766;9.626;2022-10-31T06:40:19;20.17;;;17.93;;
12871;SDS011;6504;53.766;9.626;2022-10-31T06:42:47;19.70;;;17.80;;
12871;SDS011;6504;53.766;9.626;2022-10-31T06:45:22;18.93;;;17.07;;
12871;SDS011;6504;53.766;9.626;2022-10-31T06:47:51;19.67;;;17.83;;
12871;SDS011;6504;53.766;9.626;2022-10-31T06:50:41;18.47;;;16.73;;
12871;SDS011;6504;53.766;9.626;2022-10-31T06:53:09;20.00;;;17.97;;
12871;SDS011;6504;53.766;9.626;2022-10-31T06:55:37;19.43;;;17.57;;
12871;SDS011;6504;53.766;9.626;2022-10-31T06:58:05;19.33;;;17.43;;
12871;SDS011;6504;53.766;9.626;2022-10-31T07:00:36;18.80;;;17.10;;
12871;SDS011;6504;53.766;9.626;2022-10-31T07:03:05;19.07;;;17.37;;
12871;SDS011;6504;53.766;9.626;2022-10-31T07:05:34;21.10;;;19.17;;
12871;SDS011;6504;53.766;9.626;2022-10-31T07:08:04;21.83;;;19.80;;
12871;SDS011;6504;53.766;9.626;2022-10-31T07:10:34;21.07;;;18.97;;
12871;SDS011;6504;53.766;9.626;2022-10-31T07:13:08;19.67;;;17.90;;
12871;SDS011;6504;53.766;9.626;2022-10-31T07:15:38;20.17;;;18.37;;
12871;SDS011;6504;53.766;9.626;2022-10-31T07:18:07;21.23;;;18.87;;
12871;SDS011;6504;53.766;9.626;2022-10-31T07:20:37;20.07;;;18.17;;
12871;SDS011;6504;53.766;9.626;2022-10-31T07:23:07;18.50;;;16.80;;
12871;SDS011;6504;53.766;9.626;2022-10-31T07:25:36;17.67;;;16.03;;
12871;SDS011;6504;53.766;9.626;2022-10-31T07:28:04;16.27;;;14.87;;
12871;SDS011;6504;53.766;9.626;2022-10-31T07:30:32;17.13;;;15.53;;
12871;SDS011;6504;53.766;9.626;2022-10-31T07:33:01;17.07;;;15.47;;
12871;SDS011;6504;53.766;9.626;2022-10-31T07:35:30;17.20;;;15.70;;
12871;SDS011;6504;53.766;9.626;2022-10-31T07:38:07;14.70;;;13.40;;
12871;SDS011;6504;53.766;9.626;2022-10-31T07:40:36;16.27;;;14.67;;
12871;SDS011;6504;53.766;9.626;2022-10-31T07:43:04;14.87;;;13.63;;
12871;SDS011;6504;53.766;9.626;2022-10-31T07:45:38;13.87;;;12.67;;
12871;SDS011;6504;53.766;9.626;2022-10-31T07:48:06;13.77;;;12.67;;
12871;SDS011;6504;53.766;9.626;2022-10-31T07:50:34;13.53;;;12.43;;
12871;SDS011;6504;53.766;9.626;2022-10-31T07:53:03;13.63;;;12.43;;
12871;SDS011;6504;53.766;9.626;2022-10-31T07:55:33;13.37;;;12.17;;
12871;SDS011;6504;53.766;9.626;2022-10-31T07:58:02;12.57;;;11.47;;
12871;SDS011;6504;53.766;9.626;2022-10-31T08:00:32;12.90;;;11.80;;
12871;SDS011;6504;53.766;9.626;2022-10-31T08:03:02;12.40;;;11.30;;
12871;SDS011;6504;53.766;9.626;2022-10-31T08:05:31;12.40;;;11.30;;
12871;SDS011;6504;53.766;9.626;2022-10-31T08:08:01;12.37;;;11.27;;
12871;SDS011;6504;53.766;9.626;2022-10-31T08:10:30;12.53;;;11.43;;
12871;SDS011;6504;53.766;9.626;2022-10-31T08:13:00;12.83;;;11.77;;
12871;SDS011;6504;53.766;9.626;2022-10-31T08:15:30;13.00;;;11.90;;
12871;SDS011;6504;53.766;9.626;2022-10-31T08:18:00;12.93;;;11.93;;
12871;SDS011;6504;53.766;9.626;2022-10-31T08:20:28;13.23;;;12.13;;
12871;SDS011;6504;53.766;9.626;2022-10-31T08:22:57;14.07;;;12.97;;
12871;SDS011;6504;53.766;9.626;2022-10-31T08:25:27;12.33;;;11.33;;
12871;SDS011;6504;53.766;9.626;2022-10-31T08:28:05;13.90;;;12.70;;
12871;SDS011;6504;53.766;9.626;2022-10-31T08:30:35;14.07;;;12.87;;
12871;SDS011;6504;53.766;9.626;2022-10-31T08:33:05;13.50;;;12.33;;
12871;SDS011;6504;53.766;9.626;2022-10-31T08:35:36;13.73;;;12.53;;
12871;SDS011;6504;53.766;9.626;2022-10-31T08:38:04;13.53;;;12.40;;
12871;SDS011;6504;53.766;9.626;2022-10-31T08:40:33;13.60;;;12.50;;
12871;SDS011;6504;53.766;9.626;2022-10-31T08:43:04;15.00;;;13.60;;
12871;SDS011;6504;53.766;9.626;2022-10-31T08:45:34;16.60;;;15.00;;
12871;SDS011;6504;53.766;9.626;2022-10-31T08:48:03;15.47;;;13.93;;
12871;SDS011;6504;53.766;9.626;2022-10-31T08:50:33;15.43;;;14.03;;
12871;SDS011;6504;53.766;9.626;2022-10-31T08:53:02;15.97;;;14.47;;
12871;SDS011;6504;53.766;9.626;2022-10-31T08:55:32;16.20;;;14.73;;
12871;SDS011;6504;53.766;9.626;2022-10-31T08:58:02;16.40;;;14.80;;
12871;SDS011;6504;53.766;9.626;2022-10-31T09:00:32;16.07;;;14.13;;
12871;SDS011;6504;53.766;9.626;2022-10-31T09:03:01;17.00;;;15.40;;
12871;SDS011;6504;53.766;9.626;2022-10-31T09:05:31;16.83;;;15.23;;
12871;SDS011;6504;53.766;9.626;2022-10-31T09:08:00;16.30;;;14.80;;
12871;SDS011;6504;53.766;9.626;2022-10-31T09:10:31;17.20;;;15.60;;
12871;SDS011;6504;53.766;9.626;2022-10-31T09:13:00;17.17;;;15.47;;
12871;SDS011;6504;53.766;9.626;2022-10-31T09:15:34;19.00;;;17.00;;
12871;SDS011;6504;53.766;9.626;2022-10-31T09:18:04;16.03;;;14.57;;
12871;SDS011;6504;53.766;9.626;2022-10-31T09:20:33;18.87;;;16.93;;
12871;SDS011;6504;53.766;9.626;2022-10-31T09:23:04;19.07;;;17.17;;
12871;SDS011;6504;53.766;9.626;2022-10-31T09:25:33;20.00;;;17.90;;
12871;SDS011;6504;53.766;9.626;2022-10-31T09:28:02;19.90;;;17.90;;
12871;SDS011;6504;53.766;9.626;2022-10-31T09:30:32;19.93;;;17.93;;
12871;SDS011;6504;53.766;9.626;2022-10-31T09:33:03;19.87;;;17.80;;
12871;SDS011;6504;53.766;9.626;2022-10-31T09:35:32;19.20;;;17.30;;
12871;SDS011;6504;53.766;9.626;2022-10-31T09:38:01;18.93;;;16.93;;
12871;SDS011;6504;53.766;9.626;2022-10-31T09:40:33;19.90;;;17.70;;
12871;SDS011;6504;53.766;9.626;2022-10-31T09:43:12;19.97;;;17.87;;
12871;SDS011;6504;53.766;9.626;2022-10-31T09:45:46;20.23;;;18.13;;
12871;SDS011;6504;53.766;9.626;2022-10-31T09:48:23;19.20;;;17.23;;
12871;SDS011;6504;53.766;9.626;2022-10-31T09:51:00;19.50;;;17.47;;
12871;SDS011;6504;53.766;9.626;2022-10-31T09:53:34;20.47;;;18.27;;
12871;SDS011;6504;53.766;9.626;2022-10-31T09:56:06;17.33;;;15.53;;
12871;SDS011;6504;53.766;9.626;2022-10-31T09:58:41;18.57;;;16.77;;
12871;SDS011;6504;53.766;9.626;2022-10-31T10:01:17;17.47;;;15.77;;
12871;SDS011;6504;53.766;9.626;2022-10-31T10:04:05;18.00;;;16.20;;
12871;SDS011;6504;53.766;9.626;2022-10-31T10:06:46;18.23;;;16.43;;
12871;SDS011;6504;53.766;9.626;2022-10-31T10:09:17;18.70;;;16.80;;
12871;SDS011;6504;53.766;9.626;2022-10-31T10:11:53;16.33;;;14.67;;
12871;SDS011;6504;53.766;9.626;2022-10-31T10:14:34;17.13;;;15.47;;
12871;SDS011;6504;53.766;9.626;2022-10-31T10:17:13;17.70;;;15.90;;
12871;SDS011;6504;53.766;9.626;2022-10-31T10:19:52;21.77;;;17.87;;
12871;SDS011;6504;53.766;9.626;2022-10-31T10:22:38;18.97;;;16.97;;
12871;SDS011;6504;53.766;9.626;2022-10-31T10:25:14;17.60;;;15.80;;
12871;SDS011;6504;53.766;9.626;2022-10-31T10:27:48;17.87;;;16.10;;
12871;SDS011;6504;53.766;9.626;2022-10-31T10:30:21;18.03;;;16.33;;
12871;SDS011;6504;53.766;9.626;2022-10-31T10:32:56;16.77;;;15.07;;
12871;SDS011;6504;53.766;9.626;2022-10-31T10:35:27;15.50;;;13.93;;
12871;SDS011;6504;53.766;9.626;2022-10-31T10:38:00;16.90;;;15.03;;
12871;SDS011;6504;53.766;9.626;2022-10-31T10:40:36;20.83;;;17.50;;
12871;SDS011;6504;53.766;9.626;2022-10-31T10:43:12;17.13;;;15.47;;
12871;SDS011;6504;53.766;9.626;2022-10-31T10:45:53;17.37;;;15.40;;
12871;SDS011;6504;53.766;9.626;2022-10-31T10:48:47;20.97;;;17.07;;
12871;SDS011;6504;53.766;9.626;2022-10-31T10:51:25;20.57;;;17.80;;
12871;SDS011;6504;53.766;9.626;2022-10-31T10:57:22;17.43;;;15.57;;
12871;SDS011;6504;53.766;9.626;2022-10-31T11:00:00;19.20;;;16.60;;
12871;SDS011;6504;53.766;9.626;2022-10-31T11:02:31;15.23;;;13.73;;
12871;SDS011;6504;53.766;9.626;2022-10-31T11:05:01;17.47;;;15.70;;
12871;SDS011;6504;53.766;9.626;2022-10-31T11:07:37;19.00;;;17.00;;
12871;SDS011;6504;53.766;9.626;2022-10-31T11:10:06;18.83;;;16.83;;
12871;SDS011;6504;53.766;9.626;2022-10-31T11:12:41;18.97;;;16.83;;
12871;SDS011;6504;53.766;9.626;2022-10-31T11:15:18;19.67;;;17.70;;
12871;SDS011;6504;53.766;9.626;2022-10-31T11:17:48;17.47;;;15.13;;
12871;SDS011;6504;53.766;9.626;2022-10-31T11:20:30;19.80;;;17.67;;
12871;SDS011;6504;53.766;9.626;2022-10-31T11:23:02;16.83;;;15.00;;
12871;SDS011;6504;53.766;9.626;2022-10-31T11:25:33;17.17;;;15.37;;
12871;SDS011;6504;53.766;9.626;2022-10-31T11:28:01;17.07;;;15.23;;
12871;SDS011;6504;53.766;9.626;2022-10-31T11:30:30;14.90;;;13.40;;
12871;SDS011;6504;53.766;9.626;2022-10-31T11:33:11;16.67;;;14.87;;
12871;SDS011;6504;53.766;9.626;2022-10-31T11:35:48;15.23;;;13.63;;
12871;SDS011;6504;53.766;9.626;2022-10-31T11:38:23;15.77;;;13.53;;
12871;SDS011;6504;53.766;9.626;2022-10-31T11:40:57;18.50;;;16.50;;
12871;SDS011;6504;53.766;9.626;2022-10-31T11:43:27;15.63;;;14.03;;
12871;SDS011;6504;53.766;9.626;2022-10-31T11:45:56;15.50;;;13.87;;
12871;SDS011;6504;53.766;9.626;2022-10-31T11:48:24;15.70;;;14.10;;
12871;SDS011;6504;53.766;9.626;2022-10-31T11:50:55;14.53;;;12.80;;
12871;SDS011;6504;53.766;9.626;2022-10-31T11:53:26;11.17;;;10.03;;
12871;SDS011;6504;53.766;9.626;2022-10-31T11:56:01;10.43;;;9.27;;
12871;SDS011;6504;53.766;9.626;2022-10-31T11:58:31;13.00;;;11.63;;
12871;SDS011;6504;53.766;9.626;2022-10-31T12:01:00;15.07;;;12.13;;
12871;SDS011;6504;53.766;9.626;2022-10-31T12:03:38;11.23;;;9.73;;
12871;SDS011;6504;53.766;9.626;2022-10-31T12:06:18;11.87;;;8.80;;
12871;SDS011;6504;53.766;9.626;2022-10-31T12:08:50;12.50;;;8.13;;
12871;SDS011;6504;53.766;9.626;2022-10-31T12:11:23;10.80;;;7.37;;
12871;SDS011;6504;53.766;9.626;2022-10-31T12:14:05;11.17;;;7.60;;
12871;SDS011;6504;53.766;9.626;2022-10-31T12:16:46;8.53;;;7.10;;
12871;SDS011;6504;53.766;9.626;2022-10-31T12:19:20;9.13;;;6.87;;
12871;SDS011;6504;53.766;9.626;2022-10-31T12:21:59;10.27;;;8.37;;
12871;SDS011;6504;53.766;9.626;2022-10-31T12:24:46;11.00;;;8.50;;
12871;SDS011;6504;53.766;9.626;2022-10-31T12:27:24;10.13;;;8.27;;
12871;SDS011;6504;53.766;9.626;2022-10-31T12:30:02;11.60;;;7.77;;
12871;SDS011;6504;53.766;9.626;2022-10-31T12:32:48;9.13;;;7.50;;
12871;SDS011;6504;53.766;9.626;2022-10-31T12:35:30;9.73;;;7.70;;
12871;SDS011;6504;53.766;9.626;2022-10-31T12:38:21;10.80;;;7.03;;
12871;SDS011;6504;53.766;9.626;2022-10-31T12:41:18;9.50;;;6.37;;
12871;SDS011;6504;53.766;9.626;2022-10-31T12:43:57;7.60;;;5.07;;
12871;SDS011;6504;53.766;9.626;2022-10-31T12:46:36;9.63;;;5.73;;
12871;SDS011;6504;53.766;9.626;2022-10-31T12:49:26;6.10;;;5.47;;
12871;SDS011;6504;53.766;9.626;2022-10-31T12:52:10;8.77;;;6.13;;
12871;SDS011;6504;53.766;9.626;2022-10-31T12:54:57;11.93;;;8.03;;
12871;SDS011;6504;53.766;9.626;2022-10-31T12:57:38;9.63;;;7.40;;
12871;SDS011;6504;53.766;9.626;2022-10-31T13:00:12;7.40;;;6.57;;
12871;SDS011;6504;53.766;9.626;2022-10-31T13:02:44;14.10;;;6.73;;
12871;SDS011;6504;53.766;9.626;2022-10-31T13:05:22;9.20;;;6.43;;
12871;SDS011;6504;53.766;9.626;2022-10-31T13:07:55;8.87;;;6.93;;
12871;SDS011;6504;53.766;9.626;2022-10-31T13:10:30;8.67;;;6.40;;
12871;SDS011;6504;53.766;9.626;2022-10-31T13:13:05;6.77;;;5.37;;
12871;SDS011;6504;53.766;9.626;2022-10-31T13:15:46;7.83;;;5.97;;
12871;SDS011;6504;53.766;9.626;2022-10-31T13:18:19;7.53;;;5.67;;
12871;SDS011;6504;53.766;9.626;2022-10-31T13:20:52;6.20;;;5.23;;
12871;SDS011;6504;53.766;9.626;2022-10-31T13:23:24;5.03;;;4.40;;
12871;SDS011;6504;53.766;9.626;2022-10-31T13:26:18;9.57;;;5.77;;
12871;SDS011;6504;53.766;9.626;2022-10-31T13:28:53;7.20;;;5.50;;
12871;SDS011;6504;53.766;9.626;2022-10-31T13:31:26;5.47;;;4.93;;
12871;SDS011;6504;53.766;9.626;2022-10-31T13:33:55;7.30;;;5.40;;
12871;SDS011;6504;53.766;9.626;2022-10-31T13:36:28;7.70;;;5.23;;
12871;SDS011;6504;53.766;9.626;2022-10-31T13:39:02;7.80;;;5.30;;
12871;SDS011;6504;53.766;9.626;2022-10-31T13:41:44;8.77;;;5.00;;
12871;SDS011;6504;53.766;9.626;2022-10-31T13:44:15;5.97;;;4.40;;
12871;SDS011;6504;53.766;9.626;2022-10-31T13:46:48;4.43;;;3.40;;
12871;SDS011;6504;53.766;9.626;2022-10-31T13:49:35;5.50;;;4.70;;
12871;SDS011;6504;53.766;9.626;2022-10-31T13:52:06;5.93;;;5.23;;
12871;SDS011;6504;53.766;9.626;2022-10-31T13:54:42;11.30;;;9.07;;
12871;SDS011;6504;53.766;9.626;2022-10-31T13:57:24;10.63;;;8.60;;
12871;SDS011;6504;53.766;9.626;2022-10-31T14:00:00;9.10;;;8.30;;
12871;SDS011;6504;53.766;9.626;2022-10-31T14:02:33;9.37;;;7.67;;
12871;SDS011;6504;53.766;9.626;2022-10-31T14:05:03;9.37;;;8.47;;
12871;SDS011;6504;53.766;9.626;2022-10-31T14:07:41;9.57;;;8.47;;
12871;SDS011;6504;53.766;9.626;2022-10-31T14:10:20;8.40;;;7.50;;
12871;SDS011;6504;53.766;9.626;2022-10-31T14:12:53;13.27;;;9.77;;
12871;SDS011;6504;53.766;9.626;2022-10-31T14:15:30;10.27;;;9.37;;
12871;SDS011;6504;53.766;9.626;2022-10-31T14:17:59;10.67;;;9.63;;
12871;SDS011;6504;53.766;9.626;2022-10-31T14:20:33;10.60;;;9.60;;
12871;SDS011;6504;53.766;9.626;2022-10-31T14:28:49;11.43;;;9.70;;
12871;SDS011;6504;53.766;9.626;2022-10-31T14:31:27;11.43;;;10.37;;
12871;SDS011;6504;53.766;9.626;2022-10-31T14:33:59;9.97;;;8.97;;
12871;SDS011;6504;53.766;9.626;2022-10-31T14:36:32;15.20;;;11.67;;
12871;SDS011;6504;53.766;9.626;2022-10-31T14:39:10;15.13;;;11.67;;
12871;SDS011;6504;53.766;9.626;2022-10-31T14:41:48;12.10;;;10.87;;
12871;SDS011;6504;53.766;9.626;2022-10-31T14:44:34;11.43;;;10.13;;
12871;SDS011;6504;53.766;9.626;2022-10-31T14:47:24;11.60;;;10.37;;
12871;SDS011;6504;53.766;9.626;2022-10-31T14:50:14;11.90;;;10.43;;
12871;SDS011;6504;53.766;9.626;2022-10-31T14:52:52;11.27;;;9.97;;
12871;SDS011;6504;53.766;9.626;2022-10-31T14:55:24;11.80;;;9.37;;
12871;SDS011;6504;53.766;9.626;2022-10-31T14:57:54;9.73;;;8.73;;
12871;SDS011;6504;53.766;9.626;2022-10-31T15:00:27;10.53;;;9.43;;
12871;SDS011;6504;53.766;9.626;2022-10-31T15:03:00;9.97;;;8.93;;
12871;SDS011;6504;53.766;9.626;2022-10-31T15:05:35;10.37;;;8.60;;
12871;SDS011;6504;53.766;9.626;2022-10-31T15:08:13;9.60;;;8.43;;
12871;SDS011;6504;53.766;9.626;2022-10-31T15:10:52;12.17;;;9.50;;
12871;SDS011;6504;53.766;9.626;2022-10-31T15:13:21;9.30;;;8.17;;
12871;SDS011;6504;53.766;9.626;2022-10-31T15:15:52;9.80;;;8.80;;
12871;SDS011;6504;53.766;9.626;2022-10-31T15:18:23;11.53;;;9.43;;
12871;SDS011;6504;53.766;9.626;2022-10-31T15:20:53;9.07;;;8.17;;
12871;SDS011;6504;53.766;9.626;2022-10-31T15:23:23;9.63;;;8.67;;
12871;SDS011;6504;53.766;9.626;2022-10-31T15:26:03;19.80;;;17.70;;
12871;SDS011;6504;53.766;9.626;2022-10-31T15:28:32;35.70;;;31.87;;